Terminal Aerodrome Forecast
Issued by NWS

Home | Current Version | Previous Version | Graphics & Text | Print | Product List | Glossary On
Versions: 1 2 3 4 5 6 7 8 9 10 11 12 13 14 15 16 17 18 19 20
000
FTUS43 KGRB 291100
TAFCWA
TAF
KCWA 291138Z 2912/3012 31007KT 2SM BR BKN006 OVC012
      TEMPO 2912/2913 1 1/2SM -FZDZSN BR BKN003
     FM291400 32008G15KT 4SM -SN BR BKN009 OVC018
     FM291600 31017G25KT P6SM -SN BKN015 BKN030
     FM300000 32012KT P6SM BKN025 BKN035
     FM300300 32008KT P6SM FEW030 SCT100=

USA.gov is the U.S. government's official web portal to all federal, state and local government web resources and services.